Time;durP1;ratioP1;P1;durP2;ratioP2;P2;SDS_P1;SDS_P2;PMS_P1;PMS_P2;Temp;Humidity;BMP_temperature;BMP_pressure;BME280_temperature;BME280_humidity;BME280_pressure;Samples;Min_cycle;Max_cycle;Signal;HPM_P1;HPM_P2
2021/09/30 00:02:03;;;;;;;0.40;0.30;;;9.70;99.90;;;;;;5137064;27;21007;-81
2021/09/30 00:04:30;;;;;;;0.30;0.20;;;9.60;99.90;;;;;;5137008;27;20453;-83
2021/09/30 00:06:56;;;;;;;0.50;0.40;;;9.60;99.90;;;;;;5136896;27;20933;-83
2021/09/30 00:09:24;;;;;;;0.40;0.30;;;9.60;99.90;;;;;;5137071;27;20454;-83
2021/09/30 00:11:55;;;;;;;0.40;0.30;;;9.60;99.90;;;;;;5137120;27;20488;-83
2021/09/30 00:14:25;;;;;;;0.30;0.30;;;9.50;99.90;;;;;;5137260;27;20553;-83
2021/09/30 00:17:07;;;;;;;0.40;0.30;;;9.60;99.90;;;;;;5136738;27;20453;-83
2021/09/30 00:36:12;;;;;;;0.30;0.30;;;9.40;99.90;;;;;;5132354;27;20470;-82
2021/09/30 00:41:45;;;;;;;0.33;0.27;;;9.20;99.90;;;;;;5093109;28;20833;-83
2021/09/30 00:47:04;;;;;;;0.30;0.20;;;9.30;99.90;;;;;;5119431;27;20483;-83
2021/09/30 00:49:39;;;;;;;0.30;0.30;;;9.30;99.90;;;;;;5136386;27;20441;-83
2021/09/30 00:52:12;;;;;;;0.30;0.30;;;9.20;99.90;;;;;;5136046;27;20441;-79
2021/09/30 02:19:33;;;;;;;0.40;0.30;;;8.90;99.90;;;;;;5134534;27;20429;-79
2021/09/30 02:22:18;;;;;;;0.30;0.30;;;8.80;99.90;;;;;;5134414;27;20918;-79
2021/09/30 02:39:12;;;;;;;0.80;0.70;;;8.70;99.90;;;;;;5091245;28;20508;-83
2021/09/30 02:58:33;;;;;;;0.30;0.30;;;8.60;99.90;;;;;;5134429;28;20447;-78
2021/09/30 03:01:04;;;;;;;0.93;0.93;;;8.60;99.90;;;;;;5133914;27;20956;-79
2021/09/30 03:03:33;;;;;;;0.30;0.30;;;8.60;99.90;;;;;;5135085;27;20450;-79
2021/09/30 03:06:01;;;;;;;0.37;0.33;;;8.60;99.90;;;;;;5134223;27;20450;-83
2021/09/30 03:08:30;;;;;;;0.83;0.57;;;8.60;99.90;;;;;;5134207;27;20461;-83
2021/09/30 03:11:00;;;;;;;0.30;0.30;;;8.50;99.90;;;;;;5134104;27;20466;-83
2021/09/30 03:13:28;;;;;;;0.30;0.30;;;8.50;99.90;;;;;;5134418;27;20526;-79
2021/09/30 03:15:58;;;;;;;0.30;0.30;;;8.50;99.90;;;;;;5134048;27;20568;-78
2021/09/30 03:18:30;;;;;;;0.30;0.20;;;8.50;99.90;;;;;;5133939;27;20455;-78
2021/09/30 03:23:48;;;;;;;0.30;0.30;;;8.50;99.90;;;;;;5133480;27;20807;-83
2021/09/30 03:26:17;;;;;;;0.30;0.20;;;8.40;99.90;;;;;;5133718;27;20971;-83
2021/09/30 03:28:45;;;;;;;1.77;0.50;;;8.50;99.90;;;;;;5133960;27;20804;-83
2021/09/30 03:31:13;;;;;;;0.30;0.30;;;8.40;99.90;;;;;;5134886;27;20473;-83
2021/09/30 03:33:40;;;;;;;0.30;0.30;;;8.40;99.90;;;;;;5137886;27;20442;-78
2021/09/30 03:36:07;;;;;;;0.30;0.30;;;8.40;99.90;;;;;;5137740;27;20480;-78
2021/09/30 03:38:34;;;;;;;0.30;0.30;;;8.40;99.90;;;;;;5137825;27;20481;-79
2021/09/30 03:41:02;;;;;;;0.30;0.30;;;8.40;99.90;;;;;;5137674;27;20474;-83
2021/09/30 03:43:29;;;;;;;0.30;0.30;;;8.30;99.90;;;;;;5137458;27;20426;-83
2021/09/30 03:45:56;;;;;;;0.30;0.20;;;8.30;99.90;;;;;;5137223;27;20462;-83
2021/09/30 03:48:23;;;;;;;0.30;0.30;;;8.40;99.90;;;;;;5137624;27;20490;-83
2021/09/30 03:50:57;;;;;;;0.30;0.30;;;8.30;99.90;;;;;;5137482;27;20465;-83
2021/09/30 03:53:28;;;;;;;0.30;0.30;;;8.30;99.90;;;;;;5137587;27;20439;-83
2021/09/30 03:56:02;;;;;;;0.30;0.30;;;8.30;99.90;;;;;;5137394;27;20466;-83
2021/09/30 04:01:16;;;;;;;0.30;0.30;;;8.30;99.90;;;;;;5137142;27;20526;-83
2021/09/30 04:03:42;;;;;;;0.63;0.30;;;8.30;99.90;;;;;;5137274;27;20522;-83
2021/09/30 04:06:10;;;;;;;0.40;0.40;;;8.20;99.90;;;;;;5137230;27;20453;-83
2021/09/30 04:08:37;;;;;;;0.40;0.30;;;8.20;99.90;;;;;;5136913;27;20499;-79
2021/09/30 04:11:04;;;;;;;0.43;0.30;;;8.30;99.90;;;;;;5137055;27;20481;-79
2021/09/30 04:13:32;;;;;;;0.30;0.30;;;8.30;99.90;;;;;;5136805;27;20450;-78
2021/09/30 04:15:59;;;;;;;0.30;0.30;;;8.30;99.90;;;;;;5136985;27;20477;-79
2021/09/30 04:18:27;;;;;;;0.30;0.30;;;8.30;99.90;;;;;;5136945;27;20446;-78
2021/09/30 04:20:53;;;;;;;0.30;0.30;;;8.30;99.90;;;;;;5137047;27;21060;-83
2021/09/30 04:23:20;;;;;;;0.30;0.20;;;8.30;99.90;;;;;;5136951;27;20454;-83
2021/09/30 04:25:47;;;;;;;0.30;0.30;;;8.30;99.90;;;;;;5136590;27;20453;-79
2021/09/30 04:28:15;;;;;;;0.30;0.20;;;8.30;99.90;;;;;;5136895;27;20453;-79
2021/09/30 04:30:43;;;;;;;0.30;0.30;;;8.30;99.90;;;;;;5136433;27;20988;-83
2021/09/30 04:33:10;;;;;;;0.30;0.30;;;8.30;99.90;;;;;;5136480;27;20435;-79
2021/09/30 04:35:37;;;;;;;0.30;0.30;;;8.30;99.90;;;;;;5136617;27;20484;-79
2021/09/30 04:38:08;;;;;;;0.30;0.20;;;8.30;99.90;;;;;;5136401;27;20434;-79
2021/09/30 04:40:34;;;;;;;0.73;0.67;;;8.20;99.90;;;;;;5136273;27;20841;-83
2021/09/30 04:43:02;;;;;;;0.30;0.23;;;8.20;99.90;;;;;;5136151;27;20450;-79
2021/09/30 04:45:29;;;;;;;0.40;0.30;;;8.20;99.90;;;;;;5136017;27;20478;-79
2021/09/30 04:47:57;;;;;;;0.30;0.20;;;8.10;99.90;;;;;;5136532;27;20442;-81
2021/09/30 04:50:24;;;;;;;0.30;0.20;;;8.00;99.90;;;;;;5136365;27;20462;-79
2021/09/30 04:52:52;;;;;;;0.30;0.30;;;7.90;99.90;;;;;;5136110;27;20442;-78
2021/09/30 04:55:19;;;;;;;0.30;0.20;;;7.90;99.90;;;;;;5135934;27;20968;-83
2021/09/30 04:57:45;;;;;;;0.30;0.27;;;7.90;99.90;;;;;;5135937;27;20952;-79
2021/09/30 05:00:13;;;;;;;0.30;0.20;;;7.90;99.90;;;;;;5136131;27;20466;-79
2021/09/30 05:02:40;;;;;;;0.30;0.30;;;7.90;99.90;;;;;;5136150;27;20450;-79
2021/09/30 05:05:09;;;;;;;0.30;0.30;;;7.80;99.90;;;;;;5136129;27;20532;-79
2021/09/30 05:07:36;;;;;;;0.30;0.20;;;7.80;99.90;;;;;;5135826;27;20430;-79
2021/09/30 05:10:05;;;;;;;0.50;0.47;;;7.80;99.90;;;;;;5135953;27;20477;-79
2021/09/30 05:12:31;;;;;;;0.30;0.30;;;7.70;99.90;;;;;;5135950;27;20537;-79
2021/09/30 05:14:58;;;;;;;0.30;0.30;;;7.60;99.90;;;;;;5135505;27;20941;-79
2021/09/30 05:17:25;;;;;;;0.30;0.20;;;7.70;99.90;;;;;;5135642;27;20433;-79
2021/09/30 05:19:52;;;;;;;0.37;0.27;;;7.70;99.90;;;;;;5135732;27;20818;-79
2021/09/30 05:22:20;;;;;;;0.30;0.30;;;7.60;99.90;;;;;;5135753;27;20453;-79
2021/09/30 05:24:46;;;;;;;0.30;0.23;;;7.60;99.90;;;;;;5135711;27;20449;-83
2021/09/30 05:27:13;;;;;;;0.30;0.20;;;7.60;99.90;;;;;;5135353;27;20438;-83
2021/09/30 05:29:40;;;;;;;0.33;0.30;;;7.50;99.90;;;;;;5135566;27;20442;-83
2021/09/30 05:32:07;;;;;;;0.30;0.20;;;7.50;99.90;;;;;;5135813;27;20442;-84
2021/09/30 05:34:34;;;;;;;0.30;0.27;;;7.50;99.90;;;;;;5135521;27;20450;-83
2021/09/30 05:37:01;;;;;;;0.30;0.20;;;7.50;99.90;;;;;;5135049;27;21033;-83
2021/09/30 05:39:29;;;;;;;0.30;0.30;;;7.50;99.90;;;;;;5135366;27;20450;-83
2021/09/30 05:41:56;;;;;;;0.33;0.30;;;7.50;99.90;;;;;;5135374;27;20449;-78
2021/09/30 05:44:24;;;;;;;0.30;0.20;;;7.50;99.90;;;;;;5135029;27;20478;-78
2021/09/30 05:46:54;;;;;;;2.23;0.50;;;7.60;99.90;;;;;;5135263;27;20445;-83
2021/09/30 05:49:22;;;;;;;1.13;1.03;;;7.60;99.90;;;;;;5135718;27;20436;-78
2021/09/30 05:51:48;;;;;;;0.30;0.30;;;7.60;99.90;;;;;;5135089;27;20437;-78
2021/09/30 05:54:15;;;;;;;0.30;0.30;;;7.60;99.90;;;;;;5134671;27;20449;-83
2021/09/30 05:56:43;;;;;;;0.30;0.20;;;7.60;99.90;;;;;;5134969;27;20485;-84
2021/09/30 05:59:10;;;;;;;0.30;0.20;;;7.60;99.90;;;;;;5135370;27;20442;-84
2021/09/30 06:02:08;;;;;;;0.30;0.30;;;7.70;99.90;;;;;;5134906;27;20549;-83
2021/09/30 06:12:56;;;;;;;0.43;0.40;;;7.90;99.90;;;;;;5134895;27;20777;-83
2021/09/30 06:15:30;;;;;;;0.30;0.30;;;7.90;99.90;;;;;;5135389;27;20430;-83
2021/09/30 06:17:59;;;;;;;0.30;0.20;;;7.90;99.90;;;;;;5134477;27;20430;-83
2021/09/30 06:20:26;;;;;;;0.30;0.20;;;7.90;99.90;;;;;;5135026;27;20659;-83
2021/09/30 06:22:52;;;;;;;0.30;0.20;;;7.90;99.90;;;;;;5134534;27;20458;-79
2021/09/30 06:25:19;;;;;;;0.40;0.30;;;7.90;99.90;;;;;;5134619;27;20446;-79
2021/09/30 06:27:46;;;;;;;0.40;0.30;;;7.90;99.90;;;;;;5134595;27;20485;-79
2021/09/30 06:30:15;;;;;;;0.40;0.30;;;7.90;99.90;;;;;;5134520;27;20462;-79
2021/09/30 06:32:42;;;;;;;0.30;0.30;;;8.00;99.90;;;;;;5134266;27;20430;-79
2021/09/30 06:35:10;;;;;;;0.60;0.37;;;8.00;99.90;;;;;;5134484;27;20566;-79
2021/09/30 06:37:37;;;;;;;0.30;0.30;;;8.10;99.90;;;;;;5134395;27;20481;-79
2021/09/30 06:40:04;;;;;;;0.30;0.30;;;8.20;99.90;;;;;;5134391;27;20474;-78
2021/09/30 06:42:31;;;;;;;0.30;0.30;;;8.30;99.90;;;;;;5134502;27;20442;-79
2021/09/30 06:44:58;;;;;;;0.30;0.30;;;8.30;99.90;;;;;;5133986;27;20473;-78
2021/09/30 06:47:26;;;;;;;0.50;0.40;;;8.40;99.90;;;;;;5134161;27;20442;-78
2021/09/30 06:49:52;;;;;;;0.40;0.30;;;8.40;99.90;;;;;;5134321;27;20466;-79
2021/09/30 06:52:19;;;;;;;0.30;0.20;;;8.50;99.90;;;;;;5134189;27;20458;-78
2021/09/30 06:54:46;;;;;;;0.30;0.20;;;8.50;99.90;;;;;;5134019;27;20971;-78
2021/09/30 06:57:12;;;;;;;0.30;0.20;;;8.60;99.90;;;;;;5134066;27;20485;-79
2021/09/30 06:59:39;;;;;;;0.30;0.20;;;8.60;99.90;;;;;;5134216;27;20442;-79
2021/09/30 07:02:07;;;;;;;0.50;0.50;;;8.70;99.90;;;;;;5133968;27;20450;-79
2021/09/30 07:04:37;;;;;;;0.30;0.30;;;8.80;99.90;;;;;;5134264;27;20471;-79
2021/09/30 07:07:05;;;;;;;0.40;0.40;;;8.80;99.90;;;;;;5136600;27;20925;-79
2021/09/30 07:09:32;;;;;;;0.30;0.30;;;8.90;99.90;;;;;;5137989;27;20936;-79
2021/09/30 07:11:59;;;;;;;0.30;0.20;;;9.00;99.90;;;;;;5138303;27;20492;-79
2021/09/30 07:14:27;;;;;;;0.30;0.30;;;9.00;99.90;;;;;;5138259;27;20446;-79
2021/09/30 07:16:53;;;;;;;0.30;0.30;;;9.10;99.90;;;;;;5137884;27;20469;-79
2021/09/30 07:19:20;;;;;;;0.30;0.30;;;9.10;99.90;;;;;;5138185;27;20441;-78
2021/09/30 07:21:49;;;;;;;0.40;0.40;;;9.20;99.90;;;;;;5137857;27;20434;-79
2021/09/30 07:24:16;;;;;;;0.30;0.20;;;9.20;99.90;;;;;;5138081;27;20449;-79
2021/09/30 07:26:43;;;;;;;0.30;0.30;;;9.30;99.90;;;;;;5137698;27;20955;-79
2021/09/30 07:29:10;;;;;;;0.30;0.30;;;9.40;99.90;;;;;;5137979;27;20446;-79
2021/09/30 07:31:36;;;;;;;0.30;0.30;;;9.50;99.90;;;;;;5137891;27;20458;-79
2021/09/30 07:34:04;;;;;;;1.33;0.30;;;9.60;99.90;;;;;;5137940;27;20442;-80
2021/09/30 07:36:31;;;;;;;0.30;0.30;;;9.60;99.90;;;;;;5137803;27;20524;-79
2021/09/30 07:38:59;;;;;;;0.30;0.30;;;9.70;99.90;;;;;;5137580;27;20499;-80
2021/09/30 07:41:26;;;;;;;0.30;0.20;;;9.70;99.90;;;;;;5137693;27;20477;-79
2021/09/30 07:43:53;;;;;;;0.40;0.37;;;9.80;99.90;;;;;;5137120;27;20859;-78
2021/09/30 07:46:19;;;;;;;0.37;0.30;;;9.80;99.90;;;;;;5137690;27;20434;-79
2021/09/30 07:48:46;;;;;;;0.40;0.30;;;9.90;99.90;;;;;;5137381;27;20434;-78
2021/09/30 07:51:13;;;;;;;0.40;0.30;;;10.00;99.90;;;;;;5137492;27;20470;-78
2021/09/30 07:53:40;;;;;;;0.80;0.30;;;10.20;99.90;;;;;;5137509;27;20449;-78
2021/09/30 07:56:08;;;;;;;0.33;0.33;;;10.30;99.90;;;;;;5137421;27;20478;-83
2021/09/30 07:58:35;;;;;;;0.30;0.30;;;10.50;99.90;;;;;;5137462;27;20442;-79
2021/09/30 08:01:01;;;;;;;0.47;0.40;;;10.60;99.90;;;;;;5137296;27;20473;-83
2021/09/30 08:03:29;;;;;;;0.60;0.30;;;10.70;99.90;;;;;;5136965;27;20430;-83
2021/09/30 08:05:56;;;;;;;0.40;0.30;;;10.80;99.90;;;;;;5137326;27;20832;-83
2021/09/30 08:08:23;;;;;;;0.30;0.30;;;10.90;99.90;;;;;;5137342;27;20785;-83
2021/09/30 08:10:50;;;;;;;0.30;0.30;;;11.00;99.90;;;;;;5137159;27;20472;-83
2021/09/30 08:13:19;;;;;;;0.30;0.30;;;11.10;99.90;;;;;;5137200;27;20444;-83
2021/09/30 08:15:46;;;;;;;0.60;0.40;;;11.20;99.90;;;;;;5137278;27;20446;-83
2021/09/30 08:18:13;;;;;;;0.30;0.30;;;11.30;99.90;;;;;;5136238;27;20473;-79
2021/09/30 08:20:42;;;;;;;0.30;0.20;;;11.50;99.90;;;;;;5136970;27;20473;-79
2021/09/30 08:23:10;;;;;;;0.80;0.30;;;11.80;99.90;;;;;;5137249;27;20434;-79
2021/09/30 08:25:37;;;;;;;0.30;0.20;;;12.00;99.90;;;;;;5136665;27;20458;-78
2021/09/30 08:28:04;;;;;;;0.40;0.30;;;12.00;99.90;;;;;;5137617;27;20438;-79
2021/09/30 08:30:32;;;;;;;0.30;0.30;;;12.20;99.90;;;;;;5136487;27;20991;-79
2021/09/30 08:32:59;;;;;;;1.33;0.40;;;12.30;99.90;;;;;;5136522;27;20443;-84
2021/09/30 08:35:26;;;;;;;0.40;0.30;;;12.40;99.90;;;;;;5136813;27;20433;-83
2021/09/30 08:37:53;;;;;;;0.30;0.20;;;12.30;99.90;;;;;;5136383;27;20999;-83
2021/09/30 08:40:20;;;;;;;0.30;0.20;;;12.30;99.90;;;;;;5136249;27;20466;-85
2021/09/30 08:42:48;;;;;;;0.30;0.30;;;12.40;99.90;;;;;;5136389;27;20406;-84
2021/09/30 08:45:16;;;;;;;0.30;0.30;;;12.50;99.90;;;;;;5136178;27;20478;-85
2021/09/30 08:47:54;;;;;;;0.30;0.30;;;12.60;99.90;;;;;;5136605;27;20427;-87
2021/09/30 08:50:21;;;;;;;0.40;0.30;;;12.90;99.90;;;;;;5136146;27;20464;-83
2021/09/30 08:52:48;;;;;;;0.87;0.87;;;13.10;99.90;;;;;;5136797;27;20453;-83
2021/09/30 08:55:14;;;;;;;0.40;0.30;;;13.20;99.90;;;;;;5136351;27;20431;-83
2021/09/30 08:57:45;;;;;;;0.30;0.30;;;13.40;99.90;;;;;;5136289;27;20466;-83
2021/09/30 09:00:13;;;;;;;0.73;0.30;;;13.60;99.90;;;;;;5136451;27;20508;-84
2021/09/30 09:02:44;;;;;;;1.13;1.03;;;14.00;99.90;;;;;;5136223;27;20427;-84
2021/09/30 09:05:12;;;;;;;1.80;0.40;;;14.50;99.90;;;;;;5136233;27;20449;-84
2021/09/30 09:07:39;;;;;;;3.30;0.30;;;14.90;99.90;;;;;;5135922;27;20434;-84
2021/09/30 09:10:09;;;;;;;0.30;0.30;;;15.40;99.90;;;;;;5136020;27;20466;-84
2021/09/30 09:12:37;;;;;;;0.30;0.30;;;15.70;99.90;;;;;;5136080;27;20815;-84
2021/09/30 09:15:05;;;;;;;0.30;0.30;;;15.90;99.90;;;;;;5136124;27;20435;-84
2021/09/30 09:17:32;;;;;;;1.03;0.40;;;16.20;99.90;;;;;;5135634;27;20461;-84
2021/09/30 09:20:01;;;;;;;0.30;0.30;;;16.60;99.90;;;;;;5135825;27;20457;-81
2021/09/30 09:22:31;;;;;;;0.60;0.43;;;17.00;99.90;;;;;;5135803;27;20441;-81
2021/09/30 09:25:10;;;;;;;0.30;0.30;;;17.30;99.90;;;;;;5135420;27;20438;-81
2021/09/30 09:27:53;;;;;;;0.40;0.30;;;17.40;99.90;;;;;;5135452;27;20893;-81
2021/09/30 09:30:39;;;;;;;0.30;0.30;;;17.00;99.90;;;;;;5134854;27;20466;-83
2021/09/30 09:33:12;;;;;;;0.40;0.30;;;16.70;99.90;;;;;;5135719;27;20426;-84
2021/09/30 09:35:58;;;;;;;0.40;0.30;;;16.40;99.90;;;;;;5135793;27;20431;-85
2021/09/30 09:38:28;;;;;;;0.30;0.30;;;15.90;99.10;;;;;;5135574;27;20466;-80
2021/09/30 09:41:02;;;;;;;3.40;0.37;;;15.40;99.90;;;;;;5135600;27;20462;-81
2021/09/30 09:43:39;;;;;;;2.40;0.37;;;15.20;99.90;;;;;;5135433;27;20431;-81
2021/09/30 09:46:07;;;;;;;0.30;0.30;;;15.10;99.90;;;;;;5135197;27;20524;-85
2021/09/30 09:48:35;;;;;;;2.10;0.30;;;15.20;99.90;;;;;;5135392;27;20442;-84
2021/09/30 09:51:05;;;;;;;0.30;0.30;;;15.30;99.90;;;;;;5135055;27;20446;-85
2021/09/30 09:53:35;;;;;;;0.40;0.30;;;15.40;99.90;;;;;;5135364;27;20438;-84
2021/09/30 09:56:14;;;;;;;0.80;0.30;;;15.50;99.90;;;;;;5135425;27;20450;-81
2021/09/30 09:58:46;;;;;;;0.50;0.37;;;15.70;99.90;;;;;;5135056;27;20806;-83
2021/09/30 10:01:13;;;;;;;0.30;0.30;;;15.90;99.90;;;;;;5134903;27;20909;-85
2021/09/30 10:03:51;;;;;;;0.30;0.20;;;16.20;99.90;;;;;;5135601;27;20454;-86
2021/09/30 10:06:19;;;;;;;0.30;0.30;;;16.50;99.90;;;;;;5135598;27;20929;-86
2021/09/30 10:08:47;;;;;;;0.30;0.30;;;16.40;99.70;;;;;;5134896;27;20439;-85
2021/09/30 10:11:14;;;;;;;0.57;0.57;;;16.10;98.80;;;;;;5134945;27;20472;-85
2021/09/30 10:13:41;;;;;;;0.53;0.30;;;15.80;99.90;;;;;;5134814;27;20434;-85
2021/09/30 10:16:08;;;;;;;0.30;0.30;;;15.60;99.90;;;;;;5134863;27;20963;-84
2021/09/30 10:18:35;;;;;;;0.30;0.30;;;15.70;99.90;;;;;;5135313;27;20487;-85
2021/09/30 10:21:02;;;;;;;0.30;0.30;;;15.60;99.80;;;;;;5134677;27;20467;-85
2021/09/30 10:23:31;;;;;;;0.30;0.30;;;15.70;99.90;;;;;;5134754;27;20461;-86
2021/09/30 10:26:11;;;;;;;0.70;0.40;;;15.70;99.90;;;;;;5135433;27;20493;-86
2021/09/30 10:28:40;;;;;;;0.40;0.30;;;16.00;99.80;;;;;;5136049;27;20422;-86
2021/09/30 10:31:28;;;;;;;0.40;0.30;;;16.60;98.10;;;;;;5135226;27;20902;-86
2021/09/30 10:33:57;;;;;;;0.30;0.30;;;17.20;98.60;;;;;;5135045;27;20434;-86
2021/09/30 10:36:39;;;;;;;0.30;0.30;;;17.70;95.40;;;;;;5135410;27;20434;-86
2021/09/30 10:39:26;;;;;;;0.40;0.30;;;18.20;96.80;;;;;;5134722;27;20450;-86
2021/09/30 10:41:57;;;;;;;0.30;0.30;;;19.10;95.10;;;;;;5134828;27;20438;-86
2021/09/30 10:44:26;;;;;;;0.30;0.30;;;20.30;92.80;;;;;;5134432;27;20470;-81
2021/09/30 10:46:56;;;;;;;0.30;0.30;;;21.40;92.30;;;;;;5134427;27;20445;-81
2021/09/30 10:49:44;;;;;;;0.30;0.30;;;22.20;85.80;;;;;;5134371;27;20430;-81
2021/09/30 10:52:31;;;;;;;1.17;0.30;;;21.80;77.80;;;;;;5134062;27;20430;-81
2021/09/30 10:55:26;;;;;;;0.30;0.30;;;20.90;78.70;;;;;;5134443;27;20473;-83
2021/09/30 10:57:56;;;;;;;0.30;0.30;;;20.00;79.60;;;;;;5134356;27;20466;-86
2021/09/30 11:00:45;;;;;;;0.30;0.30;;;19.20;79.70;;;;;;5134288;27;20466;-83
2021/09/30 11:03:21;;;;;;;0.30;0.30;;;18.40;85.50;;;;;;5134009;27;20430;-82
2021/09/30 11:06:17;;;;;;;0.70;0.30;;;17.50;82.30;;;;;;5135371;27;20437;-88
2021/09/30 11:08:47;;;;;;;0.40;0.30;;;17.10;84.30;;;;;;5134891;27;20422;-89
2021/09/30 11:11:22;;;;;;;0.30;0.30;;;16.60;86.90;;;;;;5134886;27;20459;-87
2021/09/30 11:14:24;;;;;;;0.30;0.30;;;16.30;88.50;;;;;;5134606;27;20901;-81
2021/09/30 11:16:53;;;;;;;0.80;0.30;;;16.10;84.40;;;;;;5134056;27;20426;-81
2021/09/30 11:19:42;;;;;;;1.23;0.40;;;15.90;84.00;;;;;;5134062;27;20525;-81
2021/09/30 11:35:10;;;;;;;1.50;0.40;;;15.90;82.80;;;;;;5336725;22;20878;-81
2021/09/30 11:37:42;;;;;;;0.30;0.30;;;15.80;82.60;;;;;;5013174;28;20483;-81
2021/09/30 11:40:20;;;;;;;0.40;0.30;;;15.80;85.70;;;;;;5013311;28;20472;-86
2021/09/30 11:42:50;;;;;;;0.40;0.30;;;15.80;88.20;;;;;;5013514;28;20435;-85
2021/09/30 11:45:21;;;;;;;0.30;0.30;;;15.80;84.90;;;;;;5013355;28;20439;-80
2021/09/30 11:47:49;;;;;;;1.33;1.23;;;15.70;85.90;;;;;;5013048;28;20442;-80
2021/09/30 11:50:22;;;;;;;0.40;0.30;;;15.80;87.10;;;;;;5012711;28;20983;-81
2021/09/30 11:53:07;;;;;;;0.30;0.30;;;15.80;87.00;;;;;;5015030;28;20438;-80
2021/09/30 11:55:40;;;;;;;0.60;0.50;;;15.90;90.10;;;;;;5016619;28;20431;-80
2021/09/30 11:58:07;;;;;;;0.30;0.30;;;15.90;90.30;;;;;;5016518;28;20570;-81
2021/09/30 12:00:34;;;;;;;0.50;0.40;;;16.00;91.00;;;;;;5016094;28;20471;-80
2021/09/30 12:03:03;;;;;;;0.37;0.27;;;16.00;90.70;;;;;;5016224;28;20431;-80
2021/09/30 12:05:34;;;;;;;0.40;0.30;;;16.00;90.20;;;;;;5016385;28;20454;-80
2021/09/30 12:08:03;;;;;;;0.30;0.30;;;16.00;89.40;;;;;;5016618;28;20490;-81
2021/09/30 12:10:30;;;;;;;0.30;0.30;;;15.80;89.00;;;;;;5016257;28;20471;-80
2021/09/30 12:12:57;;;;;;;0.30;0.30;;;15.80;88.70;;;;;;5016266;28;20447;-81
2021/09/30 12:15:25;;;;;;;0.40;0.30;;;15.60;89.30;;;;;;5016103;28;20447;-81
2021/09/30 12:17:51;;;;;;;0.30;0.20;;;15.50;88.30;;;;;;5016119;28;20482;-82
2021/09/30 12:20:20;;;;;;;0.30;0.30;;;15.30;89.10;;;;;;5016036;28;20471;-81
2021/09/30 12:22:51;;;;;;;0.40;0.30;;;15.30;90.00;;;;;;5015978;28;20450;-85
2021/09/30 12:25:20;;;;;;;0.30;0.30;;;15.20;90.60;;;;;;5016346;28;20416;-83
2021/09/30 12:27:49;;;;;;;0.40;0.33;;;15.20;91.00;;;;;;5016859;28;20459;-86
2021/09/30 12:30:19;;;;;;;0.40;0.30;;;15.20;89.20;;;;;;5015902;28;20974;-80
2021/09/30 12:32:51;;;;;;;0.40;0.30;;;15.10;89.20;;;;;;5015626;28;20838;-84
2021/09/30 12:35:20;;;;;;;0.30;0.20;;;15.00;90.20;;;;;;5015552;28;20507;-80
2021/09/30 12:37:50;;;;;;;0.30;0.30;;;14.90;91.20;;;;;;5015728;28;20487;-81
2021/09/30 12:40:20;;;;;;;0.30;0.30;;;14.90;92.00;;;;;;5015706;28;20472;-80
2021/09/30 12:42:59;;;;;;;0.30;0.20;;;14.80;92.30;;;;;;5015743;28;20451;-80
2021/09/30 12:45:26;;;;;;;0.30;0.20;;;14.80;91.80;;;;;;5015642;28;20482;-81
2021/09/30 12:48:02;;;;;;;0.30;0.20;;;14.70;92.80;;;;;;5016122;28;20447;-86
2021/09/30 12:50:36;;;;;;;0.40;0.30;;;14.70;92.40;;;;;;5015820;28;20455;-81
2021/09/30 12:53:05;;;;;;;0.30;0.30;;;14.60;92.40;;;;;;5015493;28;20439;-81
2021/09/30 12:55:33;;;;;;;0.40;0.30;;;14.50;93.30;;;;;;5015403;28;20428;-81
2021/09/30 12:58:00;;;;;;;0.30;0.20;;;14.50;93.20;;;;;;5015552;28;20472;-86
2021/09/30 13:00:33;;;;;;;1.50;0.30;;;14.40;93.80;;;;;;5015692;28;20547;-86
2021/09/30 13:03:15;;;;;;;0.30;0.30;;;14.40;94.30;;;;;;5016103;28;20435;-81
2021/09/30 13:05:48;;;;;;;0.30;0.30;;;14.30;94.50;;;;;;5015308;28;20432;-81
2021/09/30 13:08:35;;;;;;;0.30;0.30;;;14.30;94.10;;;;;;5015304;28;20520;-81
2021/09/30 13:11:21;;;;;;;0.30;0.30;;;14.30;94.10;;;;;;5014772;28;20990;-81
2021/09/30 13:13:47;;;;;;;0.30;0.30;;;14.30;94.10;;;;;;5016204;28;20419;-86
2021/09/30 13:16:24;;;;;;;0.30;0.20;;;14.30;93.50;;;;;;5016783;28;20411;-81
2021/09/30 13:18:51;;;;;;;0.40;0.30;;;14.30;93.90;;;;;;5015041;28;20562;-81
2021/09/30 13:21:18;;;;;;;0.30;0.30;;;14.40;93.00;;;;;;5014994;28;20547;-81
2021/09/30 13:23:46;;;;;;;0.30;0.30;;;14.40;93.20;;;;;;5015004;28;20412;-81
2021/09/30 13:26:13;;;;;;;0.40;0.37;;;14.40;93.50;;;;;;5014633;28;20439;-81
2021/09/30 13:28:40;;;;;;;0.30;0.30;;;14.40;92.70;;;;;;5014632;28;20425;-82
2021/09/30 13:31:06;;;;;;;0.30;0.20;;;14.50;95.10;;;;;;5014614;28;20833;-81
2021/09/30 13:33:33;;;;;;;0.30;0.30;;;14.50;94.00;;;;;;5014277;28;20443;-82
2021/09/30 13:36:00;;;;;;;0.30;0.30;;;14.40;93.00;;;;;;5014778;28;20444;-81
2021/09/30 13:38:27;;;;;;;0.37;0.30;;;14.30;92.50;;;;;;5014645;28;20471;-81
2021/09/30 13:40:55;;;;;;;0.70;0.30;;;14.30;92.30;;;;;;5014579;28;20844;-82
2021/09/30 13:43:22;;;;;;;0.30;0.30;;;14.30;91.30;;;;;;5014398;28;20420;-81
2021/09/30 13:45:48;;;;;;;0.30;0.30;;;14.20;91.80;;;;;;5014269;28;20803;-81
2021/09/30 13:48:15;;;;;;;0.60;0.50;;;14.10;91.10;;;;;;5014983;28;20453;-81
2021/09/30 13:50:42;;;;;;;0.30;0.30;;;14.10;91.20;;;;;;5014578;28;20472;-85
2021/09/30 13:53:08;;;;;;;0.30;0.30;;;14.10;91.30;;;;;;5014936;28;20416;-86
2021/09/30 13:55:35;;;;;;;0.40;0.30;;;14.10;91.70;;;;;;5014755;28;20515;-86
2021/09/30 13:58:03;;;;;;;0.30;0.30;;;14.10;92.20;;;;;;5014638;28;20464;-86
2021/09/30 14:00:30;;;;;;;0.40;0.30;;;14.00;92.40;;;;;;5015001;28;20456;-86
2021/09/30 14:02:57;;;;;;;0.30;0.30;;;14.00;93.10;;;;;;5014825;28;20421;-86
2021/09/30 14:05:23;;;;;;;0.30;0.30;;;14.10;93.10;;;;;;5014523;28;20795;-86
2021/09/30 14:07:50;;;;;;;0.40;0.30;;;14.10;92.70;;;;;;5014495;28;20816;-86
2021/09/30 14:10:20;;;;;;;0.40;0.30;;;14.10;92.30;;;;;;5014411;28;20986;-86
2021/09/30 14:12:49;;;;;;;0.30;0.30;;;14.00;92.20;;;;;;5013920;28;20939;-81
2021/09/30 14:15:17;;;;;;;0.30;0.30;;;14.00;93.00;;;;;;5013948;28;20495;-81
2021/09/30 14:17:44;;;;;;;0.30;0.30;;;14.00;94.30;;;;;;5014051;28;20436;-81
2021/09/30 14:20:12;;;;;;;0.30;0.30;;;14.00;94.60;;;;;;5013800;28;20463;-81
2021/09/30 14:22:40;;;;;;;0.30;0.30;;;14.00;92.70;;;;;;5014030;28;20439;-83
2021/09/30 14:25:09;;;;;;;0.30;0.20;;;14.00;93.70;;;;;;5013974;28;20859;-84
2021/09/30 14:27:35;;;;;;;0.33;0.27;;;14.00;94.10;;;;;;5013983;28;20428;-84
2021/09/30 14:30:03;;;;;;;0.30;0.20;;;13.90;94.30;;;;;;5013617;28;20463;-83
2021/09/30 14:32:31;;;;;;;0.30;0.30;;;13.90;92.90;;;;;;5013849;28;20435;-83
2021/09/30 14:34:57;;;;;;;0.40;0.30;;;14.00;92.20;;;;;;5013665;28;20487;-83
2021/09/30 14:37:24;;;;;;;0.30;0.30;;;13.90;93.10;;;;;;5013507;28;20443;-83
2021/09/30 14:39:51;;;;;;;0.40;0.30;;;13.90;94.80;;;;;;5013668;28;20495;-84
2021/09/30 14:42:18;;;;;;;0.30;0.30;;;13.80;93.50;;;;;;5013442;28;20908;-83
2021/09/30 14:44:46;;;;;;;0.30;0.30;;;13.80;94.20;;;;;;5013737;28;20440;-83
2021/09/30 14:47:13;;;;;;;0.40;0.40;;;13.80;95.60;;;;;;5013802;28;20826;-83
2021/09/30 14:49:41;;;;;;;0.30;0.30;;;13.80;95.70;;;;;;5013283;28;20922;-83
2021/09/30 14:52:10;;;;;;;0.30;0.30;;;13.80;94.60;;;;;;5013420;28;20934;-84
2021/09/30 14:54:37;;;;;;;0.30;0.30;;;13.80;93.60;;;;;;5013636;28;20435;-83
2021/09/30 14:57:04;;;;;;;0.30;0.30;;;13.80;93.10;;;;;;5013336;28;20440;-83
2021/09/30 14:59:32;;;;;;;0.40;0.30;;;13.80;92.70;;;;;;5013088;28;20865;-83
2021/09/30 15:01:58;;;;;;;0.50;0.30;;;13.80;94.10;;;;;;5013547;28;20427;-83
2021/09/30 15:04:25;;;;;;;0.67;0.30;;;13.80;93.40;;;;;;5013561;28;20427;-83
2021/09/30 15:06:53;;;;;;;0.30;0.30;;;13.80;93.90;;;;;;5013547;28;20439;-83
2021/09/30 15:09:20;;;;;;;0.30;0.30;;;13.80;94.70;;;;;;5013510;28;20440;-83
2021/09/30 15:11:47;;;;;;;0.30;0.30;;;13.80;93.30;;;;;;5013450;28;20471;-83
2021/09/30 15:14:14;;;;;;;0.30;0.30;;;13.80;94.20;;;;;;5013511;28;20455;-83
2021/09/30 15:16:44;;;;;;;0.50;0.30;;;13.80;95.70;;;;;;5013465;28;20435;-83
2021/09/30 15:19:17;;;;;;;0.30;0.30;;;13.70;96.50;;;;;;5013350;28;20876;-83
2021/09/30 15:21:45;;;;;;;0.30;0.30;;;13.70;97.10;;;;;;5013008;28;20475;-83
2021/09/30 15:24:15;;;;;;;0.67;0.30;;;13.60;96.40;;;;;;5013347;28;20462;-83
2021/09/30 15:26:43;;;;;;;0.40;0.30;;;13.60;94.30;;;;;;5013896;28;20499;-86
2021/09/30 15:29:11;;;;;;;0.30;0.30;;;13.60;94.40;;;;;;5017586;28;20455;-86
2021/09/30 15:31:42;;;;;;;0.30;0.30;;;13.60;93.40;;;;;;5016950;28;20456;-81
2021/09/30 15:34:09;;;;;;;0.30;0.23;;;13.60;92.70;;;;;;5016988;28;20490;-85
2021/09/30 15:36:36;;;;;;;0.40;0.30;;;13.60;92.30;;;;;;5017019;28;20781;-86
2021/09/30 15:39:06;;;;;;;0.40;0.30;;;13.60;92.30;;;;;;5017390;28;20471;-86
2021/09/30 15:41:35;;;;;;;0.30;0.30;;;13.60;92.00;;;;;;5017506;28;20566;-86
2021/09/30 15:44:02;;;;;;;0.63;0.47;;;13.60;93.00;;;;;;5017020;28;20900;-86
2021/09/30 15:46:29;;;;;;;0.40;0.30;;;13.60;93.40;;;;;;5017425;28;20415;-86
2021/09/30 15:48:56;;;;;;;0.30;0.30;;;13.60;93.40;;;;;;5017257;28;20432;-86